Time;durP1;ratioP1;P1;durP2;ratioP2;P2;SDS_P1;SDS_P2;PMS_P1;PMS_P2;Temp;Humidity;BMP_temperature;BMP_pressure;BME280_temperature;BME280_humidity;BME280_pressure;Samples;Min_cycle;Max_cycle;Signal;HPM_P1;HPM_P2
2022/08/05 00:00:05;;;;;;;;;;;;;;;18.82;100.00;101597.53;5036214;28;19924;-54
2022/08/05 00:02:31;;;;;;;;;;;;;;;18.84;100.00;101597.44;5055101;28;19948;-55
2022/08/05 00:04:56;;;;;;;;;;;;;;;18.83;100.00;101593.88;5055645;28;20403;-54
2022/08/05 00:07:22;;;;;;;;;;;;;;;18.79;100.00;101602.25;5037266;28;19994;-55
2022/08/05 00:09:47;;;;;;;;;;;;;;;18.75;100.00;101608.81;5055230;28;19920;-54
2022/08/05 00:12:12;;;;;;;;;;;;;;;18.71;100.00;101605.47;5054629;28;20369;-54
2022/08/05 00:14:37;;;;;;;;;;;;;;;18.69;100.00;101602.00;5055359;28;19920;-52
2022/08/05 00:17:03;;;;;;;;;;;;;;;18.62;100.00;101603.38;5055251;28;19917;-51
2022/08/05 00:19:28;;;;;;;;;;;;;;;18.59;100.00;101604.44;5055383;28;19974;-55
2022/08/05 00:21:53;;;;;;;;;;;;;;;18.56;100.00;101604.66;5020814;28;19936;-55
2022/08/05 00:24:19;;;;;;;;;;;;;;;18.49;100.00;101601.53;5037265;28;20447;-56
2022/08/05 00:26:44;;;;;;;;;;;;;;;18.48;100.00;101615.88;5054779;28;20371;-52
2022/08/05 00:29:09;;;;;;;;;;;;;;;18.44;100.00;101619.75;5055002;28;19917;-54
2022/08/05 00:31:34;;;;;;;;;;;;;;;18.43;100.00;101614.50;5055116;28;19912;-56
2022/08/05 00:34:00;;;;;;;;;;;;;;;18.43;100.00;101612.66;5054768;28;19927;-55
2022/08/05 00:36:25;;;;;;;;;;;;;;;18.43;100.00;101618.00;5036593;28;19968;-55
2022/08/05 00:38:50;;;;;;;;;;;;;;;18.47;100.00;101614.16;5054832;28;19935;-55
2022/08/05 00:41:26;;;;;;;;;;;;;;;18.45;100.00;101621.47;5053406;28;19921;-53
2022/08/05 00:43:51;;;;;;;;;;;;;;;18.42;100.00;101623.50;5051316;28;20288;-56
2022/08/05 00:46:16;;;;;;;;;;;;;;;18.39;100.00;101627.22;5054789;28;19923;-54
2022/08/05 00:48:41;;;;;;;;;;;;;;;18.37;100.00;101615.72;5054109;28;19921;-54
2022/08/05 00:51:07;;;;;;;;;;;;;;;18.34;100.00;101614.13;5037045;28;19917;-54
2022/08/05 00:53:32;;;;;;;;;;;;;;;18.32;100.00;101604.44;5036854;28;20383;-55
2022/08/05 00:55:57;;;;;;;;;;;;;;;18.30;100.00;101619.75;5036939;28;19918;-54
2022/08/05 00:58:22;;;;;;;;;;;;;;;18.31;100.00;101616.13;5053529;28;19921;-53
2022/08/05 01:00:47;;;;;;;;;;;;;;;18.28;100.00;101621.72;5040214;28;20300;-55
2022/08/05 01:03:13;;;;;;;;;;;;;;;18.29;100.00;101629.66;5034436;28;19959;-55
2022/08/05 01:05:38;;;;;;;;;;;;;;;18.25;100.00;101621.88;5049134;28;19917;-54
2022/08/05 01:08:03;;;;;;;;;;;;;;;18.24;100.00;101620.19;5054080;28;19960;-55
2022/08/05 01:10:50;;;;;;;;;;;;;;;18.26;100.00;101623.63;5053083;28;19921;-56
2022/08/05 01:13:23;;;;;;;;;;;;;;;18.26;100.00;101620.94;5053884;28;20400;-54
2022/08/05 01:15:52;;;;;;;;;;;;;;;18.23;100.00;101626.50;5053512;28;20513;-56
2022/08/05 01:18:22;;;;;;;;;;;;;;;18.24;100.00;101629.09;5036005;28;19913;-53
2022/08/05 01:21:00;;;;;;;;;;;;;;;18.19;100.00;101631.19;5053952;28;20007;-54
2022/08/05 01:23:39;;;;;;;;;;;;;;;18.21;100.00;101647.19;5054224;28;19973;-55
2022/08/05 01:26:17;;;;;;;;;;;;;;;18.18;100.00;101648.25;5053770;28;19917;-54
2022/08/05 01:28:46;;;;;;;;;;;;;;;18.18;100.00;101649.13;5053223;28;19970;-55
2022/08/05 01:31:15;;;;;;;;;;;;;;;18.23;100.00;101656.84;5053995;28;19913;-54
2022/08/05 01:34:07;;;;;;;;;;;;;;;18.24;100.00;101655.03;5053627;28;20273;-55
2022/08/05 01:36:35;;;;;;;;;;;;;;;18.28;100.00;101659.25;5029831;28;19963;-54
2022/08/05 01:39:00;;;;;;;;;;;;;;;18.28;100.00;101678.84;5053170;28;19946;-54
2022/08/05 01:41:26;;;;;;;;;;;;;;;18.28;100.00;101680.69;5035953;28;19955;-52
2022/08/05 01:43:52;;;;;;;;;;;;;;;18.28;100.00;101668.13;5053595;28;19916;-52
2022/08/05 01:46:18;;;;;;;;;;;;;;;18.25;100.00;101667.47;5035582;28;19921;-54
2022/08/05 01:48:45;;;;;;;;;;;;;;;18.19;100.00;101658.00;5034938;28;20289;-56
2022/08/05 01:51:11;;;;;;;;;;;;;;;18.17;100.00;101666.16;5053517;28;19919;-53
2022/08/05 01:53:37;;;;;;;;;;;;;;;18.18;100.00;101661.63;5053451;28;19924;-51
2022/08/05 01:56:03;;;;;;;;;;;;;;;18.16;100.00;101650.19;5053433;28;19924;-55
2022/08/05 01:58:30;;;;;;;;;;;;;;;18.04;100.00;101651.78;5052861;28;19921;-55
2022/08/05 02:00:57;;;;;;;;;;;;;;;18.06;100.00;101651.72;5052273;28;19978;-54
2022/08/05 02:03:35;;;;;;;;;;;;;;;18.00;100.00;101642.25;5053282;28;19924;-54
2022/08/05 02:06:01;;;;;;;;;;;;;;;17.96;100.00;101636.19;5053253;28;19913;-54
2022/08/05 02:08:26;;;;;;;;;;;;;;;17.91;100.00;101643.63;5052670;28;20404;-56
2022/08/05 02:10:55;;;;;;;;;;;;;;;17.89;100.00;101640.22;5035288;28;19924;-56
2022/08/05 02:13:26;;;;;;;;;;;;;;;17.86;100.00;101629.69;5053070;28;19912;-53
2022/08/05 02:16:03;;;;;;;;;;;;;;;17.78;100.00;101619.44;5052693;28;19920;-52
2022/08/05 02:18:34;;;;;;;;;;;;;;;17.73;100.00;101629.59;5051681;28;19947;-55
2022/08/05 02:21:11;;;;;;;;;;;;;;;17.72;100.00;101627.00;5052123;28;20267;-53
2022/08/05 02:23:38;;;;;;;;;;;;;;;17.66;100.00;101629.13;5052592;28;20368;-52
2022/08/05 02:26:06;;;;;;;;;;;;;;;17.65;100.00;101623.88;5035081;28;19913;-54
2022/08/05 02:28:33;;;;;;;;;;;;;;;17.59;100.00;101622.41;5034463;28;19951;-56
2022/08/05 02:31:05;;;;;;;;;;;;;;;17.55;100.00;101620.88;5052532;28;20383;-55
2022/08/05 02:33:34;;;;;;;;;;;;;;;17.53;100.00;101620.09;5052715;28;19913;-54
2022/08/05 02:36:00;;;;;;;;;;;;;;;17.50;100.00;101617.63;5052676;28;19913;-53
2022/08/05 02:38:28;;;;;;;;;;;;;;;17.47;100.00;101616.00;5052759;28;20456;-55
2022/08/05 02:40:54;;;;;;;;;;;;;;;17.50;100.00;101612.28;5033915;28;19927;-55
2022/08/05 02:43:20;;;;;;;;;;;;;;;17.50;100.00;101612.28;5052745;28;19924;-54
2022/08/05 02:45:46;;;;;;;;;;;;;;;17.50;100.00;101607.78;5052287;28;19957;-53
2022/08/05 02:48:12;;;;;;;;;;;;;;;17.51;100.00;101616.69;5052307;28;19921;-54
2022/08/05 02:50:40;;;;;;;;;;;;;;;17.48;100.00;101627.56;5051680;28;19960;-56
2022/08/05 02:53:06;;;;;;;;;;;;;;;17.44;100.00;101624.25;5052504;28;19913;-54
2022/08/05 02:55:32;;;;;;;;;;;;;;;17.41;100.00;101621.72;5052392;28;19944;-55
2022/08/05 02:57:57;;;;;;;;;;;;;;;17.39;100.00;101623.63;5052668;28;19924;-53
2022/08/05 03:00:22;;;;;;;;;;;;;;;17.35;100.00;101622.97;5051718;28;19921;-53
2022/08/05 03:02:48;;;;;;;;;;;;;;;17.33;100.00;101629.38;5033833;28;19991;-54
2022/08/05 03:05:14;;;;;;;;;;;;;;;17.34;100.00;101631.97;5052360;28;19963;-54
2022/08/05 03:07:40;;;;;;;;;;;;;;;17.33;100.00;101638.25;5051920;28;19960;-53
2022/08/05 03:10:06;;;;;;;;;;;;;;;17.34;100.00;101641.78;5051779;28;20292;-53
2022/08/05 03:12:35;;;;;;;;;;;;;;;17.38;100.00;101642.47;5052071;28;20364;-55
2022/08/05 03:15:01;;;;;;;;;;;;;;;17.36;100.00;101647.94;5052193;28;19913;-53
2022/08/05 03:17:26;;;;;;;;;;;;;;;17.32;100.00;101641.88;5051811;28;19955;-53
2022/08/05 03:19:52;;;;;;;;;;;;;;;17.28;100.00;101645.72;5051804;28;19968;-52
2022/08/05 03:22:17;;;;;;;;;;;;;;;17.26;100.00;101650.28;5043949;28;19913;-54
2022/08/05 03:24:43;;;;;;;;;;;;;;;17.20;100.00;101651.53;5050134;28;19916;-51
2022/08/05 03:27:08;;;;;;;;;;;;;;;17.17;100.00;101642.81;5052042;28;19920;-51
2022/08/05 03:29:34;;;;;;;;;;;;;;;17.13;100.00;101638.63;5051673;28;19916;-52
2022/08/05 03:31:59;;;;;;;;;;;;;;;17.10;100.00;101647.69;5051406;28;19962;-53
2022/08/05 03:34:26;;;;;;;;;;;;;;;17.10;100.00;101655.72;5053619;28;19921;-50
2022/08/05 03:36:51;;;;;;;;;;;;;;;17.06;100.00;101655.97;5055416;28;20003;-52
2022/08/05 03:39:16;;;;;;;;;;;;;;;17.02;100.00;101661.53;5055845;28;20008;-51
2022/08/05 03:41:41;;;;;;;;;;;;;;;17.00;100.00;101657.22;5055316;28;20428;-52
2022/08/05 03:44:07;;;;;;;;;;;;;;;16.98;100.00;101664.47;5055891;28;19921;-54
2022/08/05 03:46:32;;;;;;;;;;;;;;;16.95;100.00;101662.81;5037910;28;19920;-53
2022/08/05 03:48:58;;;;;;;;;;;;;;;16.96;100.00;101661.03;5055764;28;20269;-54
2022/08/05 03:51:28;;;;;;;;;;;;;;;16.96;100.00;101655.69;5037877;28;20265;-54
2022/08/05 03:54:08;;;;;;;;;;;;;;;16.94;100.00;101653.06;5017637;28;19913;-56
2022/08/05 03:56:44;;;;;;;;;;;;;;;16.91;100.00;101653.25;5054096;28;19917;-54
2022/08/05 03:59:29;;;;;;;;;;;;;;;16.90;100.00;101658.69;5055325;28;20015;-55
2022/08/05 04:01:55;;;;;;;;;;;;;;;16.92;100.00;101662.13;5055728;28;19967;-55
2022/08/05 04:04:22;;;;;;;;;;;;;;;16.86;100.00;101653.47;5054845;28;20368;-53
2022/08/05 04:06:48;;;;;;;;;;;;;;;16.83;100.00;101652.81;5037566;28;19928;-54
2022/08/05 04:09:14;;;;;;;;;;;;;;;16.79;100.00;101651.25;5055291;28;20030;-54
2022/08/05 04:11:39;;;;;;;;;;;;;;;16.75;100.00;101650.56;5055342;28;19952;-54
2022/08/05 04:14:06;;;;;;;;;;;;;;;16.71;100.00;101651.72;5055073;28;19974;-52
2022/08/05 04:16:31;;;;;;;;;;;;;;;16.68;100.00;101650.06;5055348;28;20394;-54
2022/08/05 04:18:57;;;;;;;;;;;;;;;16.65;100.00;101647.59;5053840;28;19920;-55
2022/08/05 04:21:22;;;;;;;;;;;;;;;16.62;100.00;101645.06;5055062;28;19921;-54
2022/08/05 04:23:47;;;;;;;;;;;;;;;16.60;100.00;101647.00;5037270;28;19925;-53
2022/08/05 04:26:13;;;;;;;;;;;;;;;16.57;100.00;101646.31;5037216;28;19920;-58
2022/08/05 04:28:38;;;;;;;;;;;;;;;16.51;100.00;101644.84;5054991;28;20399;-56
2022/08/05 04:31:04;;;;;;;;;;;;;;;16.50;100.00;101659.16;5054634;28;19956;-56
2022/08/05 04:33:29;;;;;;;;;;;;;;;16.48;100.00;101650.34;5054261;28;19960;-55
2022/08/05 04:35:54;;;;;;;;;;;;;;;16.47;100.00;101653.97;5036518;28;19931;-55
2022/08/05 04:38:19;;;;;;;;;;;;;;;16.44;100.00;101649.66;5054489;28;19916;-55
2022/08/05 04:40:45;;;;;;;;;;;;;;;16.42;100.00;101653.38;5054134;28;19917;-56
2022/08/05 04:43:10;;;;;;;;;;;;;;;16.38;100.00;101647.34;5053460;28;19917;-56
2022/08/05 04:45:35;;;;;;;;;;;;;;;16.34;100.00;101649.34;5054244;28;19974;-55
2022/08/05 04:48:04;;;;;;;;;;;;;;;16.34;100.00;101644.00;5036821;28;19916;-55
2022/08/05 04:50:30;;;;;;;;;;;;;;;16.31;100.00;101645.97;5053351;28;20104;-56
2022/08/05 04:52:55;;;;;;;;;;;;;;;16.31;100.00;101643.31;5053926;28;20443;-55
2022/08/05 04:55:20;;;;;;;;;;;;;;;16.31;100.00;101640.63;5052754;28;19944;-54
2022/08/05 04:57:46;;;;;;;;;;;;;;;16.33;100.00;101633.38;5054073;28;20379;-56
2022/08/05 05:00:11;;;;;;;;;;;;;;;16.34;100.00;101640.44;5053911;28;20395;-56
2022/08/05 05:02:36;;;;;;;;;;;;;;;16.36;100.00;101639.41;5054228;28;19924;-56
2022/08/05 05:05:01;;;;;;;;;;;;;;;16.40;100.00;101639.25;5035060;28;19924;-55
2022/08/05 05:07:27;;;;;;;;;;;;;;;16.41;100.00;101638.28;5054351;28;19924;-55
2022/08/05 05:09:52;;;;;;;;;;;;;;;16.45;100.00;101651.41;5054022;28;19975;-54
2022/08/05 05:12:17;;;;;;;;;;;;;;;16.47;100.00;101645.94;5047289;28;20219;-55
2022/08/05 05:14:42;;;;;;;;;;;;;;;16.50;100.00;101652.00;5040242;28;19999;-56
2022/08/05 05:17:07;;;;;;;;;;;;;;;16.51;100.00;101651.06;5032139;28;20063;-56
2022/08/05 05:19:33;;;;;;;;;;;;;;;16.55;100.00;101657.09;5035719;28;19925;-55
2022/08/05 05:21:58;;;;;;;;;;;;;;;16.58;100.00;101656.91;5054072;28;19919;-54
2022/08/05 05:24:23;;;;;;;;;;;;;;;16.60;100.00;101655.00;5019706;28;19917;-53
2022/08/05 05:26:49;;;;;;;;;;;;;;;16.65;100.00;101663.63;5052415;28;19920;-55
2022/08/05 05:29:14;;;;;;;;;;;;;;;16.71;100.00;101657.06;5053526;28;19923;-56
2022/08/05 05:31:39;;;;;;;;;;;;;;;16.72;100.00;101666.81;5053391;28;19919;-56
2022/08/05 05:34:04;;;;;;;;;;;;;;;16.77;100.00;101659.38;5053738;28;19952;-56
2022/08/05 05:36:30;;;;;;;;;;;;;;;16.82;100.00;101659.13;5034952;28;19927;-56
2022/08/05 05:38:56;;;;;;;;;;;;;;;16.90;100.00;101670.22;5053848;28;19921;-55
2022/08/05 05:41:21;;;;;;;;;;;;;;;16.93;100.00;101664.75;5053329;28;19920;-57
2022/08/05 05:43:46;;;;;;;;;;;;;;;16.98;100.00;101659.09;5035616;28;19912;-51
2022/08/05 05:46:11;;;;;;;;;;;;;;;17.02;100.00;101666.88;5053454;28;19924;-50
2022/08/05 05:48:37;;;;;;;;;;;;;;;17.07;100.00;101673.75;5053217;28;19917;-50
2022/08/05 05:51:02;;;;;;;;;;;;;;;17.15;100.00;101677.72;5035475;28;19921;-51
2022/08/05 05:53:27;;;;;;;;;;;;;;;17.26;100.00;101685.09;5053363;28;20412;-54
2022/08/05 05:55:53;;;;;;;;;;;;;;;17.35;100.00;101687.25;5053171;28;19928;-52
2022/08/05 05:58:18;;;;;;;;;;;;;;;17.44;100.00;101687.63;5050006;28;19931;-53
2022/08/05 06:00:43;;;;;;;;;;;;;;;17.47;100.00;101692.81;5051628;28;20022;-55
2022/08/05 06:03:08;;;;;;;;;;;;;;;17.54;100.00;101688.78;5051939;28;20384;-54
2022/08/05 06:05:34;;;;;;;;;;;;;;;17.61;100.00;101683.91;5050472;28;19976;-56
2022/08/05 06:07:59;;;;;;;;;;;;;;;17.65;100.00;101686.31;5049600;28;19970;-55
2022/08/05 06:10:24;;;;;;;;;;;;;;;17.68;100.00;101694.16;5051766;28;19960;-54
2022/08/05 06:12:49;;;;;;;;;;;;;;;17.72;100.00;101688.63;5052510;28;19913;-52
2022/08/05 06:15:15;;;;;;;;;;;;;;;17.78;100.00;101690.94;5032899;28;20038;-56
2022/08/05 06:17:40;;;;;;;;;;;;;;;17.85;100.00;101689.56;5021176;28;19917;-53
2022/08/05 06:20:06;;;;;;;;;;;;;;;17.89;100.00;101703.66;5050949;28;19925;-54
2022/08/05 06:22:32;;;;;;;;;;;;;;;17.89;100.00;101699.16;5051062;28;19967;-54
2022/08/05 06:24:57;;;;;;;;;;;;;;;17.89;100.00;101707.22;5052780;28;19919;-56
2022/08/05 06:27:22;;;;;;;;;;;;;;;17.90;100.00;101714.25;5052401;28;19912;-54
2022/08/05 06:29:48;;;;;;;;;;;;;;;17.91;100.00;101701.75;5034281;28;19940;-52
2022/08/05 06:32:13;;;;;;;;;;;;;;;17.96;100.00;101710.38;5052145;28;19974;-56
2022/08/05 06:34:38;;;;;;;;;;;;;;;18.04;100.00;101704.53;5052257;28;19935;-54
2022/08/05 06:37:03;;;;;;;;;;;;;;;18.08;100.00;101701.59;5049325;28;19920;-54
2022/08/05 06:39:29;;;;;;;;;;;;;;;18.16;100.00;101701.09;5051617;28;19921;-54
2022/08/05 06:41:55;;;;;;;;;;;;;;;18.23;100.00;101702.41;5051541;28;19977;-53
2022/08/05 06:44:20;;;;;;;;;;;;;;;18.28;100.00;101705.66;5050520;28;20381;-54
2022/08/05 06:46:45;;;;;;;;;;;;;;;18.39;100.00;101717.53;5051262;28;19917;-54
2022/08/05 06:49:11;;;;;;;;;;;;;;;18.45;100.00;101718.00;5051807;28;19916;-53
2022/08/05 06:51:36;;;;;;;;;;;;;;;18.46;100.00;101706.31;5046350;28;19921;-56
2022/08/05 06:54:02;;;;;;;;;;;;;;;18.40;100.00;101721.94;5033525;28;20066;-56
2022/08/05 06:56:28;;;;;;;;;;;;;;;18.48;100.00;101712.44;5052188;28;19920;-54
2022/08/05 06:58:54;;;;;;;;;;;;;;;18.59;100.00;101711.72;5051573;28;19920;-54
2022/08/05 07:01:19;;;;;;;;;;;;;;;18.74;100.00;101709.88;5051377;28;20304;-55
2022/08/05 07:03:45;;;;;;;;;;;;;;;18.83;99.03;101727.19;5051311;28;20287;-56
2022/08/05 07:06:10;;;;;;;;;;;;;;;18.95;98.06;101723.75;5050118;28;20019;-56
2022/08/05 07:08:36;;;;;;;;;;;;;;;19.13;96.07;101720.78;5050414;28;20006;-54
2022/08/05 07:11:01;;;;;;;;;;;;;;;19.43;94.57;101728.59;5051950;28;20066;-56
2022/08/05 07:18:54;;;;;;;;;;;;;;;20.26;87.69;101738.09;5048480;28;19924;-56
2022/08/05 07:21:19;;;;;;;;;;;;;;;20.50;87.61;101741.78;5050279;28;19921;-56
2022/08/05 07:23:44;;;;;;;;;;;;;;;20.68;87.37;101743.16;5051271;28;20092;-55
2022/08/05 07:26:10;;;;;;;;;;;;;;;20.78;85.25;101738.84;5047508;28;19928;-56
2022/08/05 07:28:35;;;;;;;;;;;;;;;20.97;84.01;101750.91;5050680;28;19940;-54
2022/08/05 07:31:00;;;;;;;;;;;;;;;21.11;82.07;101758.84;5051283;28;19916;-54
2022/08/05 07:33:25;;;;;;;;;;;;;;;21.10;77.52;101758.94;5033975;28;20285;-55
2022/08/05 07:35:51;;;;;;;;;;;;;;;21.10;76.39;101767.88;5049865;28;19943;-57
2022/08/05 07:38:16;;;;;;;;;;;;;;;20.90;69.35;101765.84;5051457;28;19924;-54
2022/08/05 07:40:42;;;;;;;;;;;;;;;20.76;72.75;101772.22;5051335;28;19923;-53
2022/08/05 07:43:08;;;;;;;;;;;;;;;20.79;70.59;101782.75;5051083;28;20266;-56
2022/08/05 07:45:33;;;;;;;;;;;;;;;20.70;73.95;101786.97;5049622;28;19917;-57
2022/08/05 07:47:58;;;;;;;;;;;;;;;20.55;78.12;101788.06;5032416;28;20037;-55
2022/08/05 07:50:23;;;;;;;;;;;;;;;20.50;81.24;101792.91;5033565;28;20262;-56
2022/08/05 07:52:49;;;;;;;;;;;;;;;20.61;79.76;101799.25;5050382;28;20357;-55
2022/08/05 07:55:14;;;;;;;;;;;;;;;20.51;79.35;101806.28;5051104;28;19944;-55
2022/08/05 07:57:39;;;;;;;;;;;;;;;20.53;77.98;101808.84;5048997;28;20358;-56
2022/08/05 08:00:05;;;;;;;;;;;;;;;20.55;78.17;101809.59;5049950;28;19925;-55
2022/08/05 08:02:30;;;;;;;;;;;;;;;20.42;78.44;101823.06;5032414;28;19917;-57
2022/08/05 08:04:56;;;;;;;;;;;;;;;20.18;81.88;101821.16;5046089;28;20372;-55
2022/08/05 08:07:21;;;;;;;;;;;;;;;20.14;82.09;101823.19;5049971;28;20269;-53
2022/08/05 08:09:47;;;;;;;;;;;;;;;20.10;83.66;101824.38;5029804;28;20011;-57
2022/08/05 08:12:12;;;;;;;;;;;;;;;20.14;84.34;101831.25;5050345;28;19967;-53
2022/08/05 08:14:37;;;;;;;;;;;;;;;20.18;83.50;101828.34;5050050;28;19917;-48
2022/08/05 08:17:03;;;;;;;;;;;;;;;19.97;85.65;101839.63;5033224;28;19959;-55
2022/08/05 08:19:28;;;;;;;;;;;;;;;19.94;84.12;101835.31;5050994;28;20027;-53
2022/08/05 08:21:53;;;;;;;;;;;;;;;19.83;81.85;101837.88;5054395;28;19956;-51
2022/08/05 08:24:19;;;;;;;;;;;;;;;19.62;81.30;101835.66;5054021;28;20316;-53
2022/08/05 08:26:44;;;;;;;;;;;;;;;19.40;81.25;101840.72;5054631;28;20284;-49
2022/08/05 08:29:09;;;;;;;;;;;;;;;19.30;81.78;101843.19;5036170;28;20011;-54
2022/08/05 08:31:35;;;;;;;;;;;;;;;19.24;84.72;101838.22;5053913;28;19928;-55
2022/08/05 08:34:00;;;;;;;;;;;;;;;19.23;80.03;101849.91;5051548;28;19929;-53
2022/08/05 08:36:25;;;;;;;;;;;;;;;19.11;79.32;101849.75;5054414;28;19931;-53
2022/08/05 08:38:54;;;;;;;;;;;;;;;19.04;80.63;101856.50;5036393;28;19917;-52
2022/08/05 08:41:21;;;;;;;;;;;;;;;18.98;81.69;101865.78;5052663;28;19992;-53
2022/08/05 08:43:46;;;;;;;;;;;;;;;19.00;82.02;101871.06;5050646;28;19955;-52
2022/08/05 08:46:11;;;;;;;;;;;;;;;19.04;82.12;101872.59;5054230;28;19963;-51
2022/08/05 08:48:40;;;;;;;;;;;;;;;19.03;81.19;101873.56;5053597;28;19912;-52
2022/08/05 08:51:05;;;;;;;;;;;;;;;19.07;81.18;101879.59;5049079;28;19924;-52
2022/08/05 08:53:37;;;;;;;;;;;;;;;19.09;82.66;101878.53;5050901;28;20011;-53
2022/08/05 08:56:03;;;;;;;;;;;;;;;19.15;81.83;101878.13;5053723;28;19916;-52
2022/08/05 08:58:28;;;;;;;;;;;;;;;19.06;82.26;101884.09;5035538;28;20329;-56
2022/08/05 09:00:53;;;;;;;;;;;;;;;19.02;81.80;101892.44;5035693;28;19931;-53
2022/08/05 09:03:19;;;;;;;;;;;;;;;19.06;81.87;101888.59;5053156;28;19932;-55
2022/08/05 09:05:46;;;;;;;;;;;;;;;19.10;83.18;101899.03;5035587;28;20291;-47
2022/08/05 09:08:11;;;;;;;;;;;;;;;19.12;81.47;101898.97;5052544;28;19921;-53
2022/08/05 09:10:39;;;;;;;;;;;;;;;19.08;82.32;101897.41;5053405;28;19927;-48
2022/08/05 09:13:04;;;;;;;;;;;;;;;19.10;81.69;101900.88;5053434;28;19923;-50
2022/08/05 09:15:29;;;;;;;;;;;;;;;19.09;84.06;101904.50;5052402;28;19921;-46
2022/08/05 09:17:55;;;;;;;;;;;;;;;19.19;81.59;101904.78;5053605;28;19925;-52
2022/08/05 09:20:20;;;;;;;;;;;;;;;19.30;81.26;101900.44;5053488;28;20016;-51
2022/08/05 09:23:01;;;;;;;;;;;;;;;19.30;78.53;101900.44;5052884;28;19921;-50
2022/08/05 09:25:26;;;;;;;;;;;;;;;19.30;77.86;101915.69;5053919;28;19967;-48
2022/08/05 09:27:51;;;;;;;;;;;;;;;19.33;77.37;101912.81;5044814;28;19956;-54
2022/08/05 09:30:17;;;;;;;;;;;;;;;19.35;77.13;101912.69;5052090;28;19913;-52
2022/08/05 09:32:42;;;;;;;;;;;;;;;19.36;76.81;101922.47;5052082;28;19921;-51
2022/08/05 09:35:16;;;;;;;;;;;;;;;19.31;77.52;101928.16;5053621;28;19917;-54
2022/08/05 09:37:51;;;;;;;;;;;;;;;19.31;77.15;101928.16;5035112;28;20425;-53
2022/08/05 09:40:30;;;;;;;;;;;;;;;19.30;76.93;101931.81;5035121;28;20296;-56
2022/08/05 09:42:56;;;;;;;;;;;;;;;19.30;77.77;101935.34;5034693;28;19920;-52
2022/08/05 09:45:32;;;;;;;;;;;;;;;19.34;77.42;101938.69;5052087;28;20269;-55
2022/08/05 09:47:58;;;;;;;;;;;;;;;19.26;77.31;101943.69;5035354;28;19942;-55
2022/08/05 09:50:33;;;;;;;;;;;;;;;19.10;80.98;101939.28;5052948;28;20007;-53
2022/08/05 09:52:58;;;;;;;;;;;;;;;19.13;79.16;101944.50;5052084;28;19952;-52
2022/08/05 09:55:24;;;;;;;;;;;;;;;19.20;79.07;101950.31;5032678;28;19970;-54
2022/08/05 09:57:49;;;;;;;;;;;;;;;19.23;79.29;101955.47;5053168;28;19928;-56
2022/08/05 10:00:19;;;;;;;;;;;;;;;19.36;77.82;101960.97;5052070;28;20422;-53
2022/08/05 10:02:48;;;;;;;;;;;;;;;19.28;78.19;101960.56;5051367;28;20027;-55
2022/08/05 10:05:15;;;;;;;;;;;;;;;19.35;79.52;101964.59;5052344;28;19978;-56
2022/08/05 10:07:43;;;;;;;;;;;;;;;19.39;78.64;101966.13;5051918;28;19921;-54
2022/08/05 10:10:08;;;;;;;;;;;;;;;19.37;77.32;101970.72;5050894;28;20418;-54
2022/08/05 10:12:41;;;;;;;;;;;;;;;19.31;78.34;101971.13;5051406;28;19917;-54
2022/08/05 10:15:25;;;;;;;;;;;;;;;19.36;79.25;101971.72;5045726;28;19916;-54
2022/08/05 10:18:05;;;;;;;;;;;;;;;19.40;78.72;101965.16;5051330;28;20357;-56
2022/08/05 10:20:31;;;;;;;;;;;;;;;19.54;77.60;101972.34;5048717;28;19921;-55
2022/08/05 10:22:57;;;;;;;;;;;;;;;19.57;75.52;101965.91;5052029;28;19913;-55
2022/08/05 10:25:22;;;;;;;;;;;;;;;19.61;68.93;101964.72;5033257;28;19920;-56
2022/08/05 10:27:48;;;;;;;;;;;;;;;19.74;65.79;101964.78;5048516;28;20141;-55
2022/08/05 10:30:13;;;;;;;;;;;;;;;19.91;65.86;101971.75;5051701;28;19924;-55
2022/08/05 10:32:39;;;;;;;;;;;;;;;19.91;64.48;101972.63;5052196;28;19921;-56
2022/08/05 10:35:04;;;;;;;;;;;;;;;19.98;61.78;101970.41;5033752;28;19921;-56
2022/08/05 10:37:30;;;;;;;;;;;;;;;19.97;67.25;101982.09;5050798;28;20371;-54
2022/08/05 10:39:58;;;;;;;;;;;;;;;20.11;63.82;101970.44;5045765;28;19931;-55
2022/08/05 10:42:25;;;;;;;;;;;;;;;20.19;64.55;101975.28;5051280;28;20304;-56
2022/08/05 10:44:53;;;;;;;;;;;;;;;20.18;65.48;101978.94;5050769;28;19994;-55
2022/08/05 10:47:18;;;;;;;;;;;;;;;20.37;64.96;101978.56;5049644;28;19927;-56
2022/08/05 10:50:19;;;;;;;;;;;;;;;20.36;65.28;101976.81;5050932;28;19916;-55
2022/08/05 10:52:51;;;;;;;;;;;;;;;20.65;65.19;101982.03;4989340;28;20480;-54
2022/08/05 10:55:17;;;;;;;;;;;;;;;21.05;64.25;101981.94;5036302;28;19927;-54
2022/08/05 10:57:44;;;;;;;;;;;;;;;21.13;64.78;101987.66;5046866;28;19920;-54
2022/08/05 11:00:11;;;;;;;;;;;;;;;21.34;63.81;101998.69;5047346;28;21036;-56
2022/08/05 11:02:37;;;;;;;;;;;;;;;21.49;65.01;101994.03;5047056;28;20015;-54
2022/08/05 11:05:04;;;;;;;;;;;;;;;21.62;63.45;101995.88;5033118;28;20387;-56
2022/08/05 11:07:30;;;;;;;;;;;;;;;22.07;62.48;102001.50;5050773;28;19920;-56
2022/08/05 11:09:55;;;;;;;;;;;;;;;22.49;59.01;101998.38;5032483;28;19952;-55
2022/08/05 11:12:33;;;;;;;;;;;;;;;22.32;59.35;102000.50;5046616;28;20391;-56
2022/08/05 11:15:05;;;;;;;;;;;;;;;22.19;54.87;102019.47;5049734;28;19971;-55
2022/08/05 11:17:33;;;;;;;;;;;;;;;21.98;53.69;102016.53;5050784;28;19917;-55
2022/08/05 11:19:59;;;;;;;;;;;;;;;22.18;49.68;102016.88;5049796;28;19964;-55
2022/08/05 11:22:43;;;;;;;;;;;;;;;22.29;46.74;102016.94;5051114;28;19917;-55
2022/08/05 11:25:30;;;;;;;;;;;;;;;22.09;48.00;102019.28;5050188;28;19982;-56
2022/08/05 11:27:56;;;;;;;;;;;;;;;22.16;51.42;102021.53;5049037;28;19917;-57
2022/08/05 11:30:21;;;;;;;;;;;;;;;22.74;50.61;102025.19;5050041;28;19962;-56
2022/08/05 11:32:47;;;;;;;;;;;;;;;23.45;50.20;102028.69;5033614;28;20015;-57
2022/08/05 11:35:44;;;;;;;;;;;;;;;23.64;49.58;102039.72;5051159;28;19916;-58
2022/08/05 11:38:09;;;;;;;;;;;;;;;23.32;51.98;102036.94;5002456;28;20010;-57
2022/08/05 11:40:53;;;;;;;;;;;;;;;23.29;51.41;102034.47;5046014;28;20404;-56
2022/08/05 11:43:20;;;;;;;;;;;;;;;23.02;51.44;102030.28;5036388;28;20394;-56
2022/08/05 11:45:46;;;;;;;;;;;;;;;22.62;51.44;102039.63;5029264;28;19943;-57
2022/08/05 11:48:11;;;;;;;;;;;;;;;22.33;51.62;102033.72;5048496;28;19948;-57
2022/08/05 11:50:37;;;;;;;;;;;;;;;22.84;50.86;102040.66;5032967;28;19964;-57
2022/08/05 11:53:03;;;;;;;;;;;;;;;23.34;50.11;102048.50;5033086;28;19923;-57
2022/08/05 11:55:29;;;;;;;;;;;;;;;23.80;46.64;102052.84;5052058;28;19921;-56
2022/08/05 11:57:54;;;;;;;;;;;;;;;24.69;43.59;102049.13;5037411;28;19944;-55
2022/08/05 12:00:29;;;;;;;;;;;;;;;25.26;42.20;102051.44;5054701;28;19920;-57
2022/08/05 12:02:54;;;;;;;;;;;;;;;24.75;43.23;102058.56;5036441;28;20288;-58
2022/08/05 12:05:27;;;;;;;;;;;;;;;25.00;42.27;102057.28;5036340;28;20393;-56
2022/08/05 12:07:56;;;;;;;;;;;;;;;25.19;39.15;102064.66;5053352;28;19932;-58
2022/08/05 12:10:24;;;;;;;;;;;;;;;25.08;37.45;102053.91;5055133;28;19913;-58
2022/08/05 12:12:49;;;;;;;;;;;;;;;25.52;36.55;102052.72;5053640;28;19917;-62
